createdAt,value
2022-10-07T00:00:52.580Z,47.73
2022-10-07T00:03:21.758Z,48.21
2022-10-07T00:06:00.714Z,48.38
2022-10-07T00:08:27.535Z,48.04
2022-10-07T00:10:54.326Z,48.01
2022-10-07T00:13:21.007Z,48.45
2022-10-07T00:15:48.173Z,48.27
2022-10-07T00:18:14.841Z,48.35
2022-10-07T00:20:41.529Z,48.18
2022-10-07T00:23:08.281Z,48.33
2022-10-07T00:25:38.229Z,47.34
2022-10-07T00:28:05.581Z,47.35
2022-10-07T00:30:32.747Z,48.21
2022-10-07T00:32:59.505Z,48.02
2022-10-07T00:35:26.338Z,47.81
2022-10-07T00:37:53.306Z,47.68
2022-10-07T00:40:19.841Z,48.00
2022-10-07T00:42:46.838Z,47.66
2022-10-07T00:45:17.649Z,47.99
2022-10-07T00:47:47.931Z,47.61
2022-10-07T00:50:20.510Z,47.70
2022-10-07T00:52:51.874Z,48.01
2022-10-07T00:55:22.773Z,48.38
2022-10-07T00:57:51.992Z,47.74
2022-10-07T01:00:18.929Z,48.23
2022-10-07T01:02:47.662Z,47.60
2022-10-07T01:05:14.667Z,47.92
2022-10-07T01:07:45.123Z,48.28
2022-10-07T01:10:15.434Z,48.13
2022-10-07T01:13:03.418Z,48.39
2022-10-07T01:15:51.697Z,49.03
2022-10-07T01:18:25.873Z,48.51
2022-10-07T01:21:06.192Z,49.29
2022-10-07T01:24:05.326Z,50.30
2022-10-07T01:26:42.795Z,50.47
2022-10-07T01:29:26.853Z,50.02
2022-10-07T01:32:01.441Z,49.25
2022-10-07T01:34:28.341Z,49.14
2022-10-07T01:36:59.136Z,48.67
2022-10-07T01:39:33.490Z,49.07
2022-10-07T01:42:00.093Z,49.23
2022-10-07T01:44:30.741Z,48.74
2022-10-07T01:46:58.773Z,48.82
2022-10-07T01:49:25.650Z,48.14
2022-10-07T01:52:16.228Z,48.56
2022-10-07T01:55:28.456Z,47.94
2022-10-07T01:58:02.837Z,47.63
2022-10-07T02:00:31.190Z,47.39
2022-10-07T02:03:17.762Z,48.17
2022-10-07T02:05:52.073Z,48.17
2022-10-07T02:08:42.133Z,48.19
2022-10-07T02:11:21.546Z,48.09
2022-10-07T02:14:08.178Z,48.81
2022-10-07T02:16:59.316Z,47.94
2022-10-07T02:19:32.457Z,49.34
2022-10-07T02:22:02.686Z,50.03
2022-10-07T02:24:33.854Z,49.84
2022-10-07T02:27:06.667Z,51.17
2022-10-07T02:29:36.922Z,50.51
2022-10-07T02:32:08.178Z,49.82
2022-10-07T02:34:36.152Z,49.19
2022-10-07T02:37:11.050Z,48.96
2022-10-07T02:39:37.721Z,49.02
2022-10-07T02:42:16.462Z,49.42
2022-10-07T02:44:46.943Z,49.51
2022-10-07T02:47:29.258Z,50.02
2022-10-07T02:50:00.114Z,50.32
2022-10-07T02:52:31.185Z,49.21
2022-10-07T02:55:01.926Z,49.94
2022-10-07T02:57:33.262Z,49.71
2022-10-07T03:00:01.534Z,49.37
2022-10-07T03:02:44.618Z,49.39
2022-10-07T03:05:13.143Z,49.00
2022-10-07T03:07:41.990Z,50.91
2022-10-07T03:10:09.156Z,50.94
2022-10-07T03:12:36.674Z,50.54
2022-10-07T03:15:03.589Z,50.71
2022-10-07T03:17:30.118Z,50.11
2022-10-07T03:19:57.966Z,50.30
2022-10-07T03:22:25.639Z,49.93
2022-10-07T03:24:52.301Z,49.82
2022-10-07T03:27:19.351Z,50.28
2022-10-07T03:29:48.754Z,50.93
2022-10-07T03:32:15.939Z,50.52
2022-10-07T03:34:42.491Z,49.67
2022-10-07T03:37:09.037Z,49.38
2022-10-07T03:39:36.342Z,49.89
2022-10-07T03:42:03.170Z,49.46
2022-10-07T03:44:31.615Z,48.75
2022-10-07T03:46:59.149Z,48.07
2022-10-07T03:49:27.471Z,48.90
2022-10-07T03:51:55.099Z,48.76
2022-10-07T03:54:22.001Z,48.21
2022-10-07T03:56:48.583Z,48.51
2022-10-07T03:59:15.173Z,48.26
2022-10-07T04:01:42.369Z,48.07
2022-10-07T04:04:09.136Z,48.46
2022-10-07T04:06:37.811Z,48.35
2022-10-07T04:09:09.560Z,48.98
2022-10-07T04:11:40.354Z,48.67
2022-10-07T04:14:07.663Z,48.73
2022-10-07T04:16:37.969Z,48.85
2022-10-07T04:19:07.169Z,49.14
2022-10-07T04:21:34.029Z,49.07
2022-10-07T04:24:00.608Z,49.34
2022-10-07T04:26:27.259Z,49.31
2022-10-07T04:28:53.875Z,48.85
2022-10-07T04:31:23.768Z,48.30
2022-10-07T04:33:57.009Z,48.35
2022-10-07T04:36:28.518Z,49.58
2022-10-07T04:39:01.940Z,49.48
2022-10-07T04:41:33.477Z,50.21
2022-10-07T04:44:00.942Z,49.15
2022-10-07T04:46:32.643Z,48.98
2022-10-07T04:49:05.150Z,47.94
2022-10-07T04:51:31.751Z,48.34
2022-10-07T04:54:00.396Z,48.54
2022-10-07T04:56:35.731Z,49.45
2022-10-07T04:59:05.986Z,48.80
2022-10-07T05:01:33.254Z,48.86
2022-10-07T05:04:00.226Z,50.62
2022-10-07T05:06:28.147Z,51.22
2022-10-07T05:08:54.788Z,51.64
2022-10-07T05:11:22.911Z,51.00
2022-10-07T05:13:57.041Z,51.98
2022-10-07T05:16:24.550Z,51.95
2022-10-07T05:18:51.529Z,51.49
2022-10-07T05:21:18.681Z,50.65
2022-10-07T05:23:47.744Z,50.10
2022-10-07T05:26:19.998Z,49.09
2022-10-07T05:28:51.363Z,49.14
2022-10-07T05:31:26.110Z,49.35
2022-10-07T05:33:56.345Z,50.04
2022-10-07T05:36:25.808Z,49.48
2022-10-07T05:38:57.903Z,49.48
2022-10-07T05:41:30.290Z,51.21
2022-10-07T05:44:00.083Z,51.31
2022-10-07T05:46:27.417Z,50.58
2022-10-07T05:48:57.200Z,50.39
2022-10-07T05:51:27.916Z,51.21
2022-10-07T05:53:57.552Z,50.22
2022-10-07T05:56:30.255Z,50.19
2022-10-07T05:58:57.273Z,50.17
2022-10-07T06:01:28.203Z,49.71
2022-10-07T06:03:57.473Z,49.92
2022-10-07T06:06:26.902Z,50.90
2022-10-07T06:09:16.617Z,51.00
2022-10-07T06:12:02.409Z,49.82
2022-10-07T06:14:30.009Z,49.00
2022-10-07T06:16:57.709Z,49.03
2022-10-07T06:19:24.526Z,47.89
2022-10-07T06:21:54.218Z,45.47
2022-10-07T06:24:20.853Z,43.34
2022-10-07T06:26:48.445Z,41.78
2022-10-07T06:29:16.149Z,41.30
2022-10-07T06:31:42.966Z,39.02
2022-10-07T06:34:10.115Z,37.21
2022-10-07T06:36:36.911Z,36.20
2022-10-07T06:39:04.403Z,35.68
2022-10-07T06:41:36.523Z,35.62
2022-10-07T06:44:19.465Z,34.96
2022-10-07T06:46:46.062Z,35.08
2022-10-07T06:49:12.855Z,34.76
2022-10-07T06:51:39.675Z,33.46
2022-10-07T06:54:06.309Z,33.50
2022-10-07T06:56:33.748Z,33.11
2022-10-07T06:59:01.740Z,33.77
2022-10-07T07:01:36.861Z,32.44
2022-10-07T07:04:03.858Z,33.48
2022-10-07T07:06:30.943Z,33.02
2022-10-07T07:09:04.497Z,32.11
2022-10-07T07:11:41.960Z,31.51
2022-10-07T07:14:14.573Z,32.02
2022-10-07T07:16:46.541Z,31.88
2022-10-07T07:19:14.578Z,31.21
2022-10-07T07:21:42.401Z,30.99
2022-10-07T07:24:12.434Z,31.43
2022-10-07T07:26:40.353Z,31.29
2022-10-07T07:29:10.931Z,31.75
2022-10-07T07:31:43.069Z,31.51
2022-10-07T07:34:12.562Z,30.91
2022-10-07T07:36:45.486Z,30.25
2022-10-07T07:39:14.957Z,30.30
2022-10-07T07:41:46.606Z,29.34
2022-10-07T07:44:16.214Z,29.41
2022-10-07T07:46:48.095Z,28.36
2022-10-07T07:49:16.908Z,29.51
2022-10-07T07:51:45.159Z,29.47
2022-10-07T07:54:17.766Z,29.69
2022-10-07T07:56:47.142Z,29.23
2022-10-07T07:59:14.224Z,28.66
2022-10-07T08:01:44.067Z,28.79
2022-10-07T08:04:13.169Z,28.57
2022-10-07T08:06:40.377Z,28.23
2022-10-07T08:09:06.979Z,28.05
2022-10-07T08:11:34.343Z,28.11
2022-10-07T08:14:03.256Z,28.35
2022-10-07T08:16:32.829Z,28.31
2022-10-07T08:19:00.757Z,28.61
2022-10-07T08:21:32.757Z,28.07
2022-10-07T08:24:02.792Z,27.48
2022-10-07T08:26:34.407Z,27.92
2022-10-07T08:29:04.249Z,28.40
2022-10-07T08:31:32.111Z,28.68
2022-10-07T08:34:00.805Z,27.83
2022-10-07T08:36:29.860Z,28.30
2022-10-07T08:38:56.623Z,28.12
2022-10-07T08:41:50.960Z,28.52
2022-10-07T08:44:19.902Z,28.92
2022-10-07T08:47:08.645Z,29.24
2022-10-07T08:49:47.099Z,29.97
2022-10-07T08:52:32.656Z,30.51
2022-10-07T08:55:02.364Z,30.16
2022-10-07T08:58:06.022Z,30.13
2022-10-07T09:00:59.417Z,30.37
2022-10-07T09:03:54.826Z,30.87
2022-10-07T09:06:38.231Z,31.11
2022-10-07T09:09:16.908Z,31.00
2022-10-07T09:11:46.953Z,30.34
2022-10-07T09:14:30.586Z,29.63
2022-10-07T09:17:04.725Z,30.10
2022-10-07T09:19:41.720Z,30.85
2022-10-07T09:22:21.303Z,29.55
2022-10-07T09:24:51.813Z,29.34
2022-10-07T09:27:20.609Z,28.87
2022-10-07T09:29:47.354Z,29.19
2022-10-07T09:32:17.331Z,28.52
2022-10-07T09:34:44.265Z,28.68
2022-10-07T09:37:21.752Z,28.78
2022-10-07T09:39:53.985Z,29.53
2022-10-07T09:42:35.072Z,30.04
2022-10-07T09:45:19.205Z,30.72
2022-10-07T09:47:52.435Z,30.87
2022-10-07T09:50:41.677Z,30.93
2022-10-07T09:53:23.115Z,31.46
2022-10-07T09:55:51.984Z,32.68
2022-10-07T09:58:27.055Z,33.49
2022-10-07T10:00:56.857Z,34.64
2022-10-07T10:03:37.474Z,35.27
2022-10-07T10:06:09.056Z,36.02
2022-10-07T10:08:41.658Z,35.55
2022-10-07T10:11:20.072Z,35.39
2022-10-07T10:13:48.382Z,36.67
2022-10-07T10:16:36.019Z,36.64
2022-10-07T10:19:05.115Z,36.61
2022-10-07T10:21:40.013Z,36.97
2022-10-07T10:24:12.090Z,37.70
2022-10-07T10:27:03.671Z,36.70
2022-10-07T10:29:51.599Z,38.27
2022-10-07T10:32:46.079Z,37.72
2022-10-07T10:35:18.897Z,37.98
2022-10-07T10:38:11.125Z,38.95
2022-10-07T10:41:19.978Z,37.66
2022-10-07T10:44:06.891Z,39.69
2022-10-07T10:46:42.543Z,37.70
2022-10-07T10:49:43.137Z,38.37
2022-10-07T10:52:15.414Z,38.44
2022-10-07T10:55:19.910Z,38.58
2022-10-07T10:58:03.305Z,38.85
2022-10-07T11:00:44.577Z,38.74
2022-10-07T11:03:28.686Z,39.80
2022-10-07T11:05:56.086Z,39.20
2022-10-07T11:08:27.611Z,38.29
2022-10-07T11:11:07.261Z,38.17
2022-10-07T11:14:03.199Z,37.79
2022-10-07T11:16:38.429Z,38.50
2022-10-07T11:19:50.903Z,38.80
2022-10-07T11:22:32.300Z,39.51
2022-10-07T11:25:08.667Z,40.03
2022-10-07T11:27:35.297Z,39.05
2022-10-07T11:30:23.215Z,39.12
2022-10-07T11:33:15.188Z,39.08
2022-10-07T11:35:49.010Z,39.33
2022-10-07T11:38:20.340Z,40.07
2022-10-07T11:40:53.698Z,39.50
2022-10-07T11:43:34.396Z,39.33
2022-10-07T11:46:11.721Z,40.50
2022-10-07T11:48:46.621Z,40.48
2022-10-07T11:51:26.357Z,38.69
2022-10-07T11:53:56.833Z,39.45
2022-10-07T11:56:26.618Z,39.97
2022-10-07T11:59:48.167Z,39.96
2022-10-07T12:02:30.100Z,39.65
2022-10-07T12:05:01.344Z,40.92
2022-10-07T12:07:37.039Z,40.55
2022-10-07T12:10:03.700Z,39.42
2022-10-07T12:12:42.765Z,38.78
2022-10-07T12:15:42.049Z,38.87
2022-10-07T12:18:12.360Z,38.58
2022-10-07T12:20:50.668Z,38.15
2022-10-07T12:23:17.264Z,38.36
2022-10-07T12:25:56.041Z,39.14
2022-10-07T12:28:45.717Z,40.10
2022-10-07T12:31:13.372Z,40.25
2022-10-07T12:33:55.803Z,38.60
2022-10-07T12:36:22.498Z,38.38
2022-10-07T12:39:09.803Z,37.97
2022-10-07T12:41:39.748Z,37.96
2022-10-07T12:44:22.467Z,37.79
2022-10-07T12:47:26.450Z,37.58
2022-10-07T12:49:58.943Z,38.69
2022-10-07T12:52:42.160Z,38.29
2022-10-07T12:55:16.157Z,38.34
2022-10-07T12:57:49.586Z,37.30
2022-10-07T13:00:24.745Z,38.46
2022-10-07T13:03:36.090Z,38.19
2022-10-07T13:06:32.397Z,38.05
2022-10-07T13:09:17.342Z,38.31
2022-10-07T13:12:00.707Z,39.43
2022-10-07T13:14:40.993Z,38.65
2022-10-07T13:17:35.203Z,38.86
2022-10-07T13:20:14.310Z,38.69
2022-10-07T13:22:48.784Z,38.62
2022-10-07T13:25:19.597Z,38.48
2022-10-07T13:27:53.791Z,38.33
2022-10-07T13:30:39.943Z,38.19
2022-10-07T13:33:22.779Z,38.68
2022-10-07T13:35:50.448Z,38.14
2022-10-07T13:38:28.352Z,38.47
2022-10-07T13:41:14.391Z,39.64
2022-10-07T13:43:43.798Z,39.02
2022-10-07T13:46:11.694Z,39.42
2022-10-07T13:48:45.401Z,38.16
2022-10-07T13:51:31.660Z,39.60
2022-10-07T13:54:04.320Z,39.95
2022-10-07T13:56:42.436Z,39.64
2022-10-07T13:59:18.027Z,39.58
2022-10-07T14:01:47.435Z,40.12
2022-10-07T14:04:36.090Z,39.67
2022-10-07T14:07:11.774Z,39.35
2022-10-07T14:09:47.162Z,38.40
2022-10-07T14:12:36.510Z,38.47
2022-10-07T14:15:15.935Z,37.35
2022-10-07T14:17:48.036Z,38.46
2022-10-07T14:20:36.924Z,38.44
2022-10-07T14:23:16.921Z,38.54
2022-10-07T14:25:49.519Z,38.76
2022-10-07T14:28:25.026Z,38.59
2022-10-07T14:31:25.761Z,38.38
2022-10-07T14:34:30.993Z,38.34
2022-10-07T14:37:19.040Z,38.38
2022-10-07T14:39:50.844Z,39.14
2022-10-07T14:42:24.686Z,38.32
2022-10-07T14:44:53.174Z,38.94
2022-10-07T14:47:24.191Z,39.11
2022-10-07T14:49:52.878Z,39.08
2022-10-07T14:52:28.818Z,40.07
2022-10-07T14:55:00.650Z,39.56
2022-10-07T14:57:27.590Z,39.43
2022-10-07T14:59:54.661Z,38.80
2022-10-07T15:02:22.244Z,38.13
2022-10-07T15:04:49.288Z,38.11
2022-10-07T15:07:16.875Z,37.84
2022-10-07T15:09:45.859Z,37.39
2022-10-07T15:12:14.335Z,38.57
2022-10-07T15:14:40.978Z,38.71
2022-10-07T15:17:11.290Z,38.76
2022-10-07T15:19:37.976Z,38.45
2022-10-07T15:22:05.564Z,38.88
2022-10-07T15:24:33.073Z,39.43
2022-10-07T15:27:00.049Z,39.54
2022-10-07T15:29:26.643Z,39.13
2022-10-07T15:31:53.678Z,38.41
2022-10-07T15:34:20.407Z,39.32
2022-10-07T15:36:48.912Z,39.68
2022-10-07T15:39:15.758Z,40.65
2022-10-07T15:41:43.878Z,40.34
2022-10-07T15:44:19.315Z,40.59
2022-10-07T15:46:47.485Z,39.36
2022-10-07T15:49:16.814Z,39.30
2022-10-07T15:51:43.714Z,39.48
2022-10-07T15:54:10.512Z,39.13
2022-10-07T15:56:37.150Z,39.26
2022-10-07T15:59:04.006Z,38.75
2022-10-07T16:01:33.472Z,38.58
2022-10-07T16:04:01.963Z,38.86
2022-10-07T16:06:32.384Z,37.90
2022-10-07T16:09:00.027Z,38.46
2022-10-07T16:11:28.573Z,39.55
2022-10-07T16:13:55.138Z,39.22
2022-10-07T16:16:25.945Z,39.81
2022-10-07T16:18:56.864Z,40.09
2022-10-07T16:21:29.528Z,39.66
2022-10-07T16:23:59.459Z,39.29
2022-10-07T16:26:29.874Z,39.77
2022-10-07T16:29:16.986Z,39.25
2022-10-07T16:31:45.272Z,38.42
2022-10-07T16:34:14.611Z,39.61
2022-10-07T16:36:45.562Z,39.13
2022-10-07T16:39:13.341Z,39.66
2022-10-07T16:41:44.012Z,39.10
2022-10-07T16:44:10.983Z,38.97
2022-10-07T16:46:38.026Z,39.62
2022-10-07T16:49:06.420Z,39.75
2022-10-07T16:51:36.052Z,39.58
2022-10-07T16:54:12.565Z,39.76
2022-10-07T16:56:48.131Z,39.52
2022-10-07T16:59:24.079Z,40.40
2022-10-07T17:01:52.853Z,40.76
2022-10-07T17:04:19.626Z,40.30
2022-10-07T17:06:46.815Z,39.99
2022-10-07T17:09:13.881Z,39.96
2022-10-07T17:11:41.436Z,39.48
2022-10-07T17:14:16.199Z,40.01
2022-10-07T17:16:44.743Z,40.09
2022-10-07T17:19:15.405Z,39.49
2022-10-07T17:21:42.277Z,39.84
2022-10-07T17:24:09.587Z,39.62
2022-10-07T17:26:37.809Z,40.45
2022-10-07T17:29:07.617Z,40.35
2022-10-07T17:31:36.804Z,40.54
2022-10-07T17:34:03.434Z,40.26
2022-10-07T17:36:32.363Z,40.59
2022-10-07T17:38:59.714Z,40.29
2022-10-07T17:41:32.536Z,41.57
2022-10-07T17:44:01.049Z,40.96
2022-10-07T17:46:30.170Z,40.58
2022-10-07T17:48:59.083Z,40.71
2022-10-07T17:51:28.791Z,40.94
2022-10-07T17:53:57.128Z,41.10
2022-10-07T17:56:23.939Z,41.66
2022-10-07T17:58:50.777Z,41.52
2022-10-07T18:01:24.015Z,41.24
2022-10-07T18:03:54.961Z,42.12
2022-10-07T18:06:21.551Z,42.34
2022-10-07T18:08:48.129Z,42.04
2022-10-07T18:11:17.639Z,41.66
2022-10-07T18:14:03.185Z,42.40
2022-10-07T18:16:35.110Z,42.46
2022-10-07T18:19:02.474Z,42.05
2022-10-07T18:21:30.966Z,42.46
2022-10-07T18:23:57.993Z,42.39
2022-10-07T18:26:24.645Z,42.28
2022-10-07T18:28:51.355Z,42.98
2022-10-07T18:31:19.574Z,43.16
2022-10-07T18:33:46.402Z,43.12
2022-10-07T18:36:19.022Z,43.49
2022-10-07T18:38:46.109Z,44.37
2022-10-07T18:41:16.170Z,43.84
2022-10-07T18:43:44.310Z,44.17
2022-10-07T18:46:14.267Z,44.09
2022-10-07T18:48:42.471Z,43.83
2022-10-07T18:51:10.531Z,43.92
2022-10-07T18:53:39.496Z,44.43
2022-10-07T18:56:08.700Z,46.17
2022-10-07T18:58:40.782Z,45.79
2022-10-07T19:01:11.317Z,45.37
2022-10-07T19:03:38.474Z,46.64
2022-10-07T19:06:16.226Z,46.14
2022-10-07T19:08:42.991Z,45.90
2022-10-07T19:11:12.466Z,45.24
2022-10-07T19:13:48.464Z,45.13
2022-10-07T19:16:21.257Z,44.66
2022-10-07T19:18:49.422Z,44.77
2022-10-07T19:21:18.175Z,45.09
2022-10-07T19:23:44.857Z,45.46
2022-10-07T19:26:12.785Z,46.37
2022-10-07T19:28:40.177Z,45.87
2022-10-07T19:31:21.133Z,45.57
2022-10-07T19:33:49.941Z,45.03
2022-10-07T19:36:20.041Z,45.35
2022-10-07T19:38:52.199Z,44.74
2022-10-07T19:41:21.229Z,44.53
2022-10-07T19:43:48.986Z,44.97
2022-10-07T19:46:16.792Z,45.46
2022-10-07T19:48:43.429Z,44.99
2022-10-07T19:51:13.090Z,45.39
2022-10-07T19:53:46.011Z,45.89
2022-10-07T19:56:20.233Z,45.32
2022-10-07T19:58:52.214Z,46.18
2022-10-07T20:01:24.680Z,45.45
2022-10-07T20:04:02.768Z,44.96
2022-10-07T20:06:30.500Z,45.24
2022-10-07T20:08:57.554Z,45.76
2022-10-07T20:11:24.550Z,45.43
2022-10-07T20:13:52.381Z,45.21
2022-10-07T20:16:21.806Z,45.40
2022-10-07T20:18:49.859Z,45.70
2022-10-07T20:21:22.080Z,44.96
2022-10-07T20:23:48.765Z,44.83
2022-10-07T20:26:18.953Z,44.86
2022-10-07T20:28:50.989Z,44.27
2022-10-07T20:31:21.287Z,44.46
2022-10-07T20:33:50.375Z,44.19
2022-10-07T20:36:20.204Z,44.15
2022-10-07T20:39:05.690Z,45.23
2022-10-07T20:41:50.989Z,45.11
2022-10-07T20:44:18.146Z,44.80
2022-10-07T20:46:44.845Z,45.03
2022-10-07T20:49:22.953Z,44.97
2022-10-07T20:51:53.482Z,45.02
2022-10-07T20:54:21.942Z,45.06
2022-10-07T20:56:50.569Z,46.24
2022-10-07T20:59:17.097Z,46.91
2022-10-07T21:01:44.419Z,45.90
2022-10-07T21:04:13.685Z,46.12
2022-10-07T21:06:40.534Z,45.90
2022-10-07T21:09:08.113Z,45.80
2022-10-07T21:11:35.190Z,45.92
2022-10-07T21:14:01.962Z,46.38
2022-10-07T21:16:30.350Z,45.56
2022-10-07T21:18:57.200Z,45.52
2022-10-07T21:21:25.017Z,45.41
2022-10-07T21:23:51.756Z,45.77
2022-10-07T21:26:19.088Z,46.44
2022-10-07T21:28:48.181Z,46.58
2022-10-07T21:31:17.679Z,47.16
2022-10-07T21:33:47.897Z,46.30
2022-10-07T21:36:20.255Z,47.40
2022-10-07T21:38:53.719Z,47.43
2022-10-07T21:41:23.786Z,47.00
2022-10-07T21:43:52.601Z,46.07
2022-10-07T21:46:20.737Z,46.08
2022-10-07T21:48:47.903Z,45.72
2022-10-07T21:51:15.039Z,45.17
2022-10-07T21:53:41.817Z,45.76
2022-10-07T21:56:11.796Z,45.41
2022-10-07T21:58:38.733Z,45.53
2022-10-07T22:01:08.096Z,45.43
2022-10-07T22:03:35.034Z,45.32
2022-10-07T22:06:07.081Z,45.42
2022-10-07T22:08:34.892Z,45.06
2022-10-07T22:11:17.841Z,44.72
2022-10-07T22:13:47.322Z,44.81
2022-10-07T22:16:17.000Z,45.02
2022-10-07T22:18:49.256Z,45.00
2022-10-07T22:21:21.802Z,44.83
2022-10-07T22:23:51.090Z,45.24
2022-10-07T22:26:20.114Z,45.42
2022-10-07T22:28:47.107Z,44.90
2022-10-07T22:31:14.819Z,45.58
2022-10-07T22:33:42.356Z,46.10
2022-10-07T22:36:11.304Z,46.92
2022-10-07T22:38:40.893Z,46.25
2022-10-07T22:41:10.654Z,46.02
2022-10-07T22:43:42.377Z,45.55
2022-10-07T22:46:11.011Z,45.72
2022-10-07T22:48:37.754Z,45.33
2022-10-07T22:51:08.347Z,45.32
2022-10-07T22:53:36.210Z,45.78
2022-10-07T22:56:10.576Z,45.75
2022-10-07T22:58:39.038Z,45.65
2022-10-07T23:01:07.849Z,45.62
2022-10-07T23:03:36.160Z,45.24
2022-10-07T23:06:03.793Z,46.08
2022-10-07T23:08:32.129Z,46.32
2022-10-07T23:10:59.593Z,46.79
2022-10-07T23:13:26.878Z,46.91
2022-10-07T23:16:00.287Z,46.88
2022-10-07T23:18:28.525Z,46.77
2022-10-07T23:21:03.258Z,47.57
2022-10-07T23:23:30.561Z,48.14
2022-10-07T23:25:57.338Z,48.06
2022-10-07T23:28:25.707Z,47.31
2022-10-07T23:30:53.063Z,47.19
2022-10-07T23:33:19.761Z,47.70
2022-10-07T23:35:46.807Z,47.98
2022-10-07T23:38:13.426Z,48.01
2022-10-07T23:40:40.715Z,48.64
2022-10-07T23:43:11.128Z,48.38
2022-10-07T23:45:37.654Z,48.25
2022-10-07T23:48:04.378Z,47.78
2022-10-07T23:50:32.010Z,48.53
2022-10-07T23:52:59.070Z,48.48
2022-10-07T23:55:25.714Z,48.37
2022-10-07T23:57:52.226Z,47.79
